sensor_id;sensor_type;location;lat;lon;timestamp;temperature;humidity
55203;DHT22;41077;52.956;6.796;2023-07-22T04:09:17;16.70;99.90
55203;DHT22;41077;52.956;6.796;2023-07-22T04:11:42;12.40;99.90
55203;DHT22;41077;52.956;6.796;2023-07-22T04:14:08;12.30;99.90
55203;DHT22;41077;52.956;6.796;2023-07-22T04:16:34;12.30;99.90
55203;DHT22;41077;52.956;6.796;2023-07-22T04:18:59;12.40;99.90
55203;DHT22;41077;52.956;6.796;2023-07-22T04:21:25;12.40;99.90
55203;DHT22;41077;52.956;6.796;2023-07-22T04:23:51;12.50;99.90
55203;DHT22;41077;52.956;6.796;2023-07-22T04:26:16;12.50;99.90
55203;DHT22;41077;52.956;6.796;2023-07-22T04:28:42;12.50;99.90
55203;DHT22;41077;52.956;6.796;2023-07-22T04:31:08;12.60;99.90
55203;DHT22;41077;52.956;6.796;2023-07-22T04:33:34;12.60;99.90
55203;DHT22;41077;52.956;6.796;2023-07-22T04:36:00;12.60;99.90
55203;DHT22;41077;52.956;6.796;2023-07-22T04:38:26;12.60;99.90
55203;DHT22;41077;52.956;6.796;2023-07-22T04:40:52;12.70;99.90
55203;DHT22;41077;52.956;6.796;2023-07-22T04:43:17;12.70;99.90
55203;DHT22;41077;52.956;6.796;2023-07-22T04:45:46;12.70;99.90
55203;DHT22;41077;52.956;6.796;2023-07-22T04:48:20;12.80;99.90
55203;DHT22;41077;52.956;6.796;2023-07-22T04:50:46;12.80;99.90
55203;DHT22;41077;52.956;6.796;2023-07-22T04:53:12;12.80;99.90
55203;DHT22;41077;52.956;6.796;2023-07-22T04:55:41;12.90;99.90
55203;DHT22;41077;52.956;6.796;2023-07-22T04:58:08;12.90;99.90
55203;DHT22;41077;52.956;6.796;2023-07-22T05:00:35;12.90;99.90
55203;DHT22;41077;52.956;6.796;2023-07-22T05:03:03;13.00;99.90
55203;DHT22;41077;52.956;6.796;2023-07-22T05:05:29;13.10;99.90
55203;DHT22;41077;52.956;6.796;2023-07-22T05:07:54;13.20;99.90
55203;DHT22;41077;52.956;6.796;2023-07-22T05:10:20;13.20;99.90
55203;DHT22;41077;52.956;6.796;2023-07-22T05:12:46;13.20;99.90
55203;DHT22;41077;52.956;6.796;2023-07-22T05:15:12;13.30;99.90
55203;DHT22;41077;52.956;6.796;2023-07-22T05:17:39;13.30;99.90
55203;DHT22;41077;52.956;6.796;2023-07-22T05:20:05;13.40;99.90
55203;DHT22;41077;52.956;6.796;2023-07-22T05:22:38;13.50;99.90
55203;DHT22;41077;52.956;6.796;2023-07-22T05:25:06;13.50;99.90
55203;DHT22;41077;52.956;6.796;2023-07-22T05:27:32;13.50;99.90
55203;DHT22;41077;52.956;6.796;2023-07-22T05:29:58;13.50;99.90
55203;DHT22;41077;52.956;6.796;2023-07-22T05:32:24;13.60;99.90
55203;DHT22;41077;52.956;6.796;2023-07-22T05:34:49;13.60;99.90
55203;DHT22;41077;52.956;6.796;2023-07-22T05:37:15;13.70;99.90
55203;DHT22;41077;52.956;6.796;2023-07-22T05:39:41;13.70;99.90
55203;DHT22;41077;52.956;6.796;2023-07-22T05:42:06;13.70;99.90
55203;DHT22;41077;52.956;6.796;2023-07-22T05:44:32;13.80;99.90
55203;DHT22;41077;52.956;6.796;2023-07-22T05:46:58;13.80;99.90
55203;DHT22;41077;52.956;6.796;2023-07-22T05:49:24;13.80;99.90
55203;DHT22;41077;52.956;6.796;2023-07-22T05:51:50;13.80;99.90
55203;DHT22;41077;52.956;6.796;2023-07-22T05:54:16;13.80;99.90
55203;DHT22;41077;52.956;6.796;2023-07-22T05:56:42;13.80;99.90
55203;DHT22;41077;52.956;6.796;2023-07-22T05:59:07;13.90;99.90
55203;DHT22;41077;52.956;6.796;2023-07-22T06:01:33;13.90;99.90
55203;DHT22;41077;52.956;6.796;2023-07-22T06:04:00;13.90;99.90
55203;DHT22;41077;52.956;6.796;2023-07-22T06:06:25;14.00;99.90
55203;DHT22;41077;52.956;6.796;2023-07-22T06:08:51;14.00;99.90
55203;DHT22;41077;52.956;6.796;2023-07-22T06:11:17;14.00;99.90
55203;DHT22;41077;52.956;6.796;2023-07-22T06:13:43;14.10;99.90
55203;DHT22;41077;52.956;6.796;2023-07-22T06:16:08;14.10;99.90
55203;DHT22;41077;52.956;6.796;2023-07-22T06:18:34;14.10;99.90
55203;DHT22;41077;52.956;6.796;2023-07-22T06:20:59;14.10;99.90
55203;DHT22;41077;52.956;6.796;2023-07-22T06:23:25;14.20;99.90
55203;DHT22;41077;52.956;6.796;2023-07-22T06:25:51;14.20;99.90
55203;DHT22;41077;52.956;6.796;2023-07-22T06:28:17;14.20;99.90
55203;DHT22;41077;52.956;6.796;2023-07-22T06:30:43;14.30;99.90
55203;DHT22;41077;52.956;6.796;2023-07-22T06:33:09;14.30;99.90
55203;DHT22;41077;52.956;6.796;2023-07-22T06:35:35;14.30;99.90
55203;DHT22;41077;52.956;6.796;2023-07-22T06:38:00;14.30;99.90
55203;DHT22;41077;52.956;6.796;2023-07-22T06:40:26;14.40;99.90
55203;DHT22;41077;52.956;6.796;2023-07-22T06:42:52;14.40;99.90
55203;DHT22;41077;52.956;6.796;2023-07-22T06:45:18;14.40;99.90
55203;DHT22;41077;52.956;6.796;2023-07-22T06:47:44;14.50;99.90
55203;DHT22;41077;52.956;6.796;2023-07-22T06:50:10;14.60;99.90
55203;DHT22;41077;52.956;6.796;2023-07-22T06:52:35;14.70;99.90
55203;DHT22;41077;52.956;6.796;2023-07-22T06:55:01;14.90;99.90
55203;DHT22;41077;52.956;6.796;2023-07-22T06:57:27;14.90;99.90
55203;DHT22;41077;52.956;6.796;2023-07-22T06:59:56;15.10;99.90
55203;DHT22;41077;52.956;6.796;2023-07-22T07:02:22;15.20;99.90
55203;DHT22;41077;52.956;6.796;2023-07-22T07:04:48;15.20;99.90
55203;DHT22;41077;52.956;6.796;2023-07-22T07:07:14;15.30;99.90
55203;DHT22;41077;52.956;6.796;2023-07-22T07:09:40;15.30;99.90
55203;DHT22;41077;52.956;6.796;2023-07-22T07:12:06;15.30;99.90
55203;DHT22;41077;52.956;6.796;2023-07-22T07:14:33;15.30;99.90
55203;DHT22;41077;52.956;6.796;2023-07-22T07:16:59;15.40;99.90
55203;DHT22;41077;52.956;6.796;2023-07-22T07:19:26;15.40;99.90
55203;DHT22;41077;52.956;6.796;2023-07-22T07:21:52;15.40;99.90
55203;DHT22;41077;52.956;6.796;2023-07-22T07:24:18;15.50;99.90
55203;DHT22;41077;52.956;6.796;2023-07-22T07:26:44;15.60;99.90
55203;DHT22;41077;52.956;6.796;2023-07-22T07:29:10;15.60;99.90
55203;DHT22;41077;52.956;6.796;2023-07-22T07:31:36;15.70;99.90
55203;DHT22;41077;52.956;6.796;2023-07-22T07:34:02;15.80;99.90
55203;DHT22;41077;52.956;6.796;2023-07-22T07:36:28;15.80;99.90
55203;DHT22;41077;52.956;6.796;2023-07-22T07:38:53;15.80;99.90
55203;DHT22;41077;52.956;6.796;2023-07-22T07:41:19;15.80;99.90
55203;DHT22;41077;52.956;6.796;2023-07-22T07:43:45;15.90;99.90
55203;DHT22;41077;52.956;6.796;2023-07-22T07:48:50;16.00;99.90
55203;DHT22;41077;52.956;6.796;2023-07-22T07:51:18;16.00;99.90
55203;DHT22;41077;52.956;6.796;2023-07-22T07:53:45;16.10;99.90
55203;DHT22;41077;52.956;6.796;2023-07-22T07:56:12;16.20;99.90
55203;DHT22;41077;52.956;6.796;2023-07-22T07:58:38;16.30;99.90
55203;DHT22;41077;52.956;6.796;2023-07-22T08:01:04;16.40;99.90
55203;DHT22;41077;52.956;6.796;2023-07-22T08:03:31;16.40;99.90
55203;DHT22;41077;52.956;6.796;2023-07-22T08:05:58;16.60;99.90
55203;DHT22;41077;52.956;6.796;2023-07-22T08:08:23;16.70;99.90
55203;DHT22;41077;52.956;6.796;2023-07-22T08:11:10;16.90;99.90
55203;DHT22;41077;52.956;6.796;2023-07-22T08:13:36;17.00;99.90
55203;DHT22;41077;52.956;6.796;2023-07-22T08:16:04;17.00;99.90
55203;DHT22;41077;52.956;6.796;2023-07-22T08:18:30;17.10;99.90
55203;DHT22;41077;52.956;6.796;2023-07-22T08:20:56;17.10;99.90
55203;DHT22;41077;52.956;6.796;2023-07-22T08:23:22;17.20;99.90
55203;DHT22;41077;52.956;6.796;2023-07-22T08:25:48;17.20;99.90
55203;DHT22;41077;52.956;6.796;2023-07-22T08:28:14;17.20;99.90
55203;DHT22;41077;52.956;6.796;2023-07-22T08:30:40;17.20;99.90
55203;DHT22;41077;52.956;6.796;2023-07-22T08:33:08;17.20;99.90
55203;DHT22;41077;52.956;6.796;2023-07-22T08:35:34;17.20;99.90
55203;DHT22;41077;52.956;6.796;2023-07-22T08:38:01;17.30;99.90
55203;DHT22;41077;52.956;6.796;2023-07-22T08:40:32;17.30;99.90
55203;DHT22;41077;52.956;6.796;2023-07-22T08:42:59;17.40;99.90
55203;DHT22;41077;52.956;6.796;2023-07-22T08:45:27;17.40;99.90
55203;DHT22;41077;52.956;6.796;2023-07-22T08:47:58;17.50;99.90
55203;DHT22;41077;52.956;6.796;2023-07-22T08:50:28;17.50;99.90
55203;DHT22;41077;52.956;6.796;2023-07-22T08:52:55;17.50;99.90
55203;DHT22;41077;52.956;6.796;2023-07-22T08:55:20;17.40;99.90
55203;DHT22;41077;52.956;6.796;2023-07-22T08:57:48;17.40;99.90
55203;DHT22;41077;52.956;6.796;2023-07-22T09:00:14;17.30;99.90
55203;DHT22;41077;52.956;6.796;2023-07-22T09:02:40;17.40;99.90
55203;DHT22;41077;52.956;6.796;2023-07-22T09:05:07;17.40;99.90
55203;DHT22;41077;52.956;6.796;2023-07-22T09:07:35;17.40;99.90
55203;DHT22;41077;52.956;6.796;2023-07-22T09:10:01;17.30;99.90
55203;DHT22;41077;52.956;6.796;2023-07-22T09:12:28;17.40;99.90
55203;DHT22;41077;52.956;6.796;2023-07-22T09:14:54;17.40;99.90
55203;DHT22;41077;52.956;6.796;2023-07-22T09:17:21;17.30;99.90
55203;DHT22;41077;52.956;6.796;2023-07-22T09:19:52;17.30;99.90
55203;DHT22;41077;52.956;6.796;2023-07-22T09:22:18;17.30;99.90
55203;DHT22;41077;52.956;6.796;2023-07-22T09:24:50;17.30;99.90
55203;DHT22;41077;52.956;6.796;2023-07-22T09:27:15;17.30;99.90
55203;DHT22;41077;52.956;6.796;2023-07-22T09:29:41;17.30;99.90
55203;DHT22;41077;52.956;6.796;2023-07-22T09:32:07;17.30;99.90
55203;DHT22;41077;52.956;6.796;2023-07-22T09:34:33;17.30;99.90
55203;DHT22;41077;52.956;6.796;2023-07-22T09:36:59;17.30;99.90
55203;DHT22;41077;52.956;6.796;2023-07-22T09:39:29;17.30;99.90
55203;DHT22;41077;52.956;6.796;2023-07-22T09:41:56;17.20;99.90
55203;DHT22;41077;52.956;6.796;2023-07-22T09:44:22;17.30;99.90
55203;DHT22;41077;52.956;6.796;2023-07-22T09:46:49;17.30;99.90
55203;DHT22;41077;52.956;6.796;2023-07-22T09:49:17;17.30;99.90
55203;DHT22;41077;52.956;6.796;2023-07-22T09:51:43;17.40;99.90
55203;DHT22;41077;52.956;6.796;2023-07-22T09:54:09;17.50;99.90
55203;DHT22;41077;52.956;6.796;2023-07-22T09:56:46;17.50;99.90
55203;DHT22;41077;52.956;6.796;2023-07-22T09:59:12;17.50;99.90
55203;DHT22;41077;52.956;6.796;2023-07-22T10:01:39;17.40;99.90
55203;DHT22;41077;52.956;6.796;2023-07-22T10:04:06;17.40;99.90
55203;DHT22;41077;52.956;6.796;2023-07-22T10:06:32;17.40;99.90
55203;DHT22;41077;52.956;6.796;2023-07-22T10:09:03;17.30;99.90
55203;DHT22;41077;52.956;6.796;2023-07-22T10:11:34;17.30;99.90
55203;DHT22;41077;52.956;6.796;2023-07-22T10:14:01;17.30;99.90
55203;DHT22;41077;52.956;6.796;2023-07-22T10:16:28;17.30;99.90
55203;DHT22;41077;52.956;6.796;2023-07-22T10:18:54;17.30;99.90
55203;DHT22;41077;52.956;6.796;2023-07-22T10:21:21;17.30;99.90
55203;DHT22;41077;52.956;6.796;2023-07-22T10:23:48;17.40;99.90
55203;DHT22;41077;52.956;6.796;2023-07-22T10:26:19;17.50;99.90
55203;DHT22;41077;52.956;6.796;2023-07-22T10:28:46;17.50;99.90
55203;DHT22;41077;52.956;6.796;2023-07-22T10:31:15;17.50;99.90
55203;DHT22;41077;52.956;6.796;2023-07-22T10:33:47;17.50;99.90
55203;DHT22;41077;52.956;6.796;2023-07-22T10:36:15;17.50;99.90
55203;DHT22;41077;52.956;6.796;2023-07-22T10:38:43;17.50;99.90
55203;DHT22;41077;52.956;6.796;2023-07-22T10:41:20;17.50;99.90
55203;DHT22;41077;52.956;6.796;2023-07-22T10:43:57;17.50;99.90
55203;DHT22;41077;52.956;6.796;2023-07-22T10:46:35;17.50;99.90
55203;DHT22;41077;52.956;6.796;2023-07-22T10:51:37;17.40;99.90
55203;DHT22;41077;52.956;6.796;2023-07-22T10:54:13;17.40;99.90
55203;DHT22;41077;52.956;6.796;2023-07-22T10:56:48;17.40;99.90
55203;DHT22;41077;52.956;6.796;2023-07-22T10:59:14;17.30;99.90
55203;DHT22;41077;52.956;6.796;2023-07-22T11:01:41;17.30;99.90
55203;DHT22;41077;52.956;6.796;2023-07-22T11:04:34;17.30;99.90
55203;DHT22;41077;52.956;6.796;2023-07-22T11:07:05;17.30;99.90
55203;DHT22;41077;52.956;6.796;2023-07-22T11:14:39;17.20;99.90
55203;DHT22;41077;52.956;6.796;2023-07-22T11:17:06;17.20;99.90
55203;DHT22;41077;52.956;6.796;2023-07-22T11:19:33;17.10;99.90
55203;DHT22;41077;52.956;6.796;2023-07-22T11:22:00;17.00;99.90
55203;DHT22;41077;52.956;6.796;2023-07-22T11:24:26;16.90;99.90
55203;DHT22;41077;52.956;6.796;2023-07-22T11:26:53;16.90;99.90
55203;DHT22;41077;52.956;6.796;2023-07-22T11:29:19;16.80;99.90
55203;DHT22;41077;52.956;6.796;2023-07-22T11:31:49;16.70;99.90
55203;DHT22;41077;52.956;6.796;2023-07-22T11:34:20;16.60;99.90
55203;DHT22;41077;52.956;6.796;2023-07-22T11:36:47;16.60;99.90
55203;DHT22;41077;52.956;6.796;2023-07-22T11:39:24;16.50;99.90
55203;DHT22;41077;52.956;6.796;2023-07-22T11:41:50;16.40;99.90
55203;DHT22;41077;52.956;6.796;2023-07-22T11:44:21;16.30;99.90
55203;DHT22;41077;52.956;6.796;2023-07-22T11:49:22;16.10;99.90
55203;DHT22;41077;52.956;6.796;2023-07-22T11:51:49;16.00;99.90
55203;DHT22;41077;52.956;6.796;2023-07-22T11:54:15;16.00;99.90
55203;DHT22;41077;52.956;6.796;2023-07-22T11:56:42;15.80;99.90
55203;DHT22;41077;52.956;6.796;2023-07-22T11:59:08;15.80;99.90
55203;DHT22;41077;52.956;6.796;2023-07-22T12:01:34;15.80;99.90
55203;DHT22;41077;52.956;6.796;2023-07-22T12:04:00;15.80;99.90
55203;DHT22;41077;52.956;6.796;2023-07-22T12:06:26;15.80;99.90
55203;DHT22;41077;52.956;6.796;2023-07-22T12:08:53;15.80;99.90
55203;DHT22;41077;52.956;6.796;2023-07-22T12:11:25;15.80;99.90
55203;DHT22;41077;52.956;6.796;2023-07-22T12:14:11;15.80;99.90
55203;DHT22;41077;52.956;6.796;2023-07-22T12:16:38;15.80;99.90
55203;DHT22;41077;52.956;6.796;2023-07-22T12:19:05;15.80;99.90
55203;DHT22;41077;52.956;6.796;2023-07-22T12:21:31;15.80;99.90
55203;DHT22;41077;52.956;6.796;2023-07-22T12:23:57;15.90;99.90
55203;DHT22;41077;52.956;6.796;2023-07-22T12:26:23;15.90;99.90
55203;DHT22;41077;52.956;6.796;2023-07-22T12:28:48;16.00;99.90
55203;DHT22;41077;52.956;6.796;2023-07-22T12:31:14;16.00;99.90
55203;DHT22;41077;52.956;6.796;2023-07-22T12:33:40;16.00;99.90
55203;DHT22;41077;52.956;6.796;2023-07-22T12:36:07;16.10;99.90
55203;DHT22;41077;52.956;6.796;2023-07-22T12:38:33;16.10;99.90
55203;DHT22;41077;52.956;6.796;2023-07-22T12:40:58;16.10;99.90
55203;DHT22;41077;52.956;6.796;2023-07-22T12:43:24;16.10;99.90
55203;DHT22;41077;52.956;6.796;2023-07-22T12:45:49;16.10;99.90
55203;DHT22;41077;52.956;6.796;2023-07-22T12:48:16;16.10;99.90
55203;DHT22;41077;52.956;6.796;2023-07-22T12:50:45;16.10;99.90
55203;DHT22;41077;52.956;6.796;2023-07-22T12:53:13;16.10;99.90
55203;DHT22;41077;52.956;6.796;2023-07-22T12:55:39;16.10;99.90
55203;DHT22;41077;52.956;6.796;2023-07-22T12:58:05;16.10;99.90
55203;DHT22;41077;52.956;6.796;2023-07-22T13:00:30;16.20;99.90
55203;DHT22;41077;52.956;6.796;2023-07-22T13:02:56;16.20;99.90
55203;DHT22;41077;52.956;6.796;2023-07-22T13:05:22;16.20;99.90
55203;DHT22;41077;52.956;6.796;2023-07-22T13:07:48;16.20;99.90
55203;DHT22;41077;52.956;6.796;2023-07-22T13:10:15;16.20;99.90
55203;DHT22;41077;52.956;6.796;2023-07-22T13:12:43;16.20;99.90
55203;DHT22;41077;52.956;6.796;2023-07-22T13:15:09;16.20;99.90
55203;DHT22;41077;52.956;6.796;2023-07-22T13:17:35;16.20;99.90
55203;DHT22;41077;52.956;6.796;2023-07-22T13:20:02;16.20;99.90
55203;DHT22;41077;52.956;6.796;2023-07-22T13:22:32;16.20;99.90
55203;DHT22;41077;52.956;6.796;2023-07-22T13:24:58;16.20;99.90
55203;DHT22;41077;52.956;6.796;2023-07-22T13:27:23;16.20;99.90
55203;DHT22;41077;52.956;6.796;2023-07-22T13:29:49;16.10;99.90
55203;DHT22;41077;52.956;6.796;2023-07-22T13:32:15;16.10;99.90
55203;DHT22;41077;52.956;6.796;2023-07-22T13:34:41;16.10;99.90
55203;DHT22;41077;52.956;6.796;2023-07-22T13:37:06;16.00;99.90
55203;DHT22;41077;52.956;6.796;2023-07-22T13:39:32;16.00;99.90
55203;DHT22;41077;52.956;6.796;2023-07-22T13:41:59;16.00;99.90
55203;DHT22;41077;52.956;6.796;2023-07-22T13:44:24;16.00;99.90
55203;DHT22;41077;52.956;6.796;2023-07-22T13:46:50;16.00;99.90
55203;DHT22;41077;52.956;6.796;2023-07-22T13:49:15;16.00;99.90
55203;DHT22;41077;52.956;6.796;2023-07-22T13:51:43;16.00;99.90
55203;DHT22;41077;52.956;6.796;2023-07-22T13:54:08;16.00;99.90
55203;DHT22;41077;52.956;6.796;2023-07-22T13:56:34;16.10;99.90
55203;DHT22;41077;52.956;6.796;2023-07-22T13:59:00;16.10;99.90
55203;DHT22;41077;52.956;6.796;2023-07-22T14:01:26;16.20;99.90
55203;DHT22;41077;52.956;6.796;2023-07-22T14:03:53;16.20;99.90
55203;DHT22;41077;52.956;6.796;2023-07-22T14:06:19;16.30;99.90
55203;DHT22;41077;52.956;6.796;2023-07-22T14:08:44;16.30;99.90
55203;DHT22;41077;52.956;6.796;2023-07-22T14:11:10;16.30;99.90
55203;DHT22;41077;52.956;6.796;2023-07-22T14:13:36;16.40;99.90
55203;DHT22;41077;52.956;6.796;2023-07-22T14:16:02;16.50;99.90
55203;DHT22;41077;52.956;6.796;2023-07-22T14:18:29;16.60;99.90
55203;DHT22;41077;52.956;6.796;2023-07-22T14:20:54;16.70;99.90
55203;DHT22;41077;52.956;6.796;2023-07-22T14:23:20;16.80;99.90
55203;DHT22;41077;52.956;6.796;2023-07-22T14:25:46;16.90;99.90
55203;DHT22;41077;52.956;6.796;2023-07-22T14:28:12;17.10;99.90
55203;DHT22;41077;52.956;6.796;2023-07-22T14:30:37;17.20;99.90
55203;DHT22;41077;52.956;6.796;2023-07-22T14:33:03;17.30;99.90
55203;DHT22;41077;52.956;6.796;2023-07-22T14:35:29;17.40;99.90
55203;DHT22;41077;52.956;6.796;2023-07-22T14:37:54;17.30;99.90
55203;DHT22;41077;52.956;6.796;2023-07-22T14:40:21;17.30;99.90
55203;DHT22;41077;52.956;6.796;2023-07-22T14:42:47;17.20;99.90
55203;DHT22;41077;52.956;6.796;2023-07-22T14:45:13;17.10;99.90
55203;DHT22;41077;52.956;6.796;2023-07-22T14:47:38;17.10;99.90
55203;DHT22;41077;52.956;6.796;2023-07-22T14:50:05;17.10;99.90
55203;DHT22;41077;52.956;6.796;2023-07-22T14:52:31;17.10;99.90
55203;DHT22;41077;52.956;6.796;2023-07-22T14:54:57;17.20;99.90
55203;DHT22;41077;52.956;6.796;2023-07-22T14:57:22;17.20;99.90
55203;DHT22;41077;52.956;6.796;2023-07-22T14:59:52;17.30;99.90
55203;DHT22;41077;52.956;6.796;2023-07-22T15:02:17;17.30;99.90
55203;DHT22;41077;52.956;6.796;2023-07-22T15:04:43;17.30;99.90
55203;DHT22;41077;52.956;6.796;2023-07-22T15:07:08;17.30;99.90
55203;DHT22;41077;52.956;6.796;2023-07-22T15:09:34;17.20;99.90
55203;DHT22;41077;52.956;6.796;2023-07-22T15:12:00;17.20;99.90
55203;DHT22;41077;52.956;6.796;2023-07-22T15:14:25;17.10;99.90
55203;DHT22;41077;52.956;6.796;2023-07-22T15:16:51;17.10;99.90
55203;DHT22;41077;52.956;6.796;2023-07-22T15:19:17;17.00;99.90
55203;DHT22;41077;52.956;6.796;2023-07-22T15:21:42;17.00;99.90
55203;DHT22;41077;52.956;6.796;2023-07-22T15:24:08;16.90;99.90
55203;DHT22;41077;52.956;6.796;2023-07-22T15:26:33;16.90;99.90
55203;DHT22;41077;52.956;6.796;2023-07-22T15:28:59;16.80;99.90
55203;DHT22;41077;52.956;6.796;2023-07-22T15:31:25;16.70;99.90
55203;DHT22;41077;52.956;6.796;2023-07-22T15:33:51;16.70;99.90
55203;DHT22;41077;52.956;6.796;2023-07-22T15:36:16;16.60;99.90
55203;DHT22;41077;52.956;6.796;2023-07-22T15:38:42;16.60;99.90
55203;DHT22;41077;52.956;6.796;2023-07-22T15:41:08;16.50;99.90
55203;DHT22;41077;52.956;6.796;2023-07-22T15:43:34;16.50;99.90
55203;DHT22;41077;52.956;6.796;2023-07-22T15:46:00;16.50;99.90
55203;DHT22;41077;52.956;6.796;2023-07-22T15:48:26;16.50;99.90
55203;DHT22;41077;52.956;6.796;2023-07-22T15:50:52;16.50;99.90
55203;DHT22;41077;52.956;6.796;2023-07-22T15:53:20;16.50;99.90
55203;DHT22;41077;52.956;6.796;2023-07-22T15:55:46;16.50;99.90
55203;DHT22;41077;52.956;6.796;2023-07-22T15:58:14;16.40;99.90
55203;DHT22;41077;52.956;6.796;2023-07-22T16:00:40;16.40;99.90
55203;DHT22;41077;52.956;6.796;2023-07-22T16:03:06;16.40;99.90
55203;DHT22;41077;52.956;6.796;2023-07-22T16:05:32;16.40;99.90
55203;DHT22;41077;52.956;6.796;2023-07-22T16:07:58;16.30;99.90
55203;DHT22;41077;52.956;6.796;2023-07-22T16:10:25;16.30;99.90
55203;DHT22;41077;52.956;6.796;2023-07-22T16:12:50;16.30;99.90
55203;DHT22;41077;52.956;6.796;2023-07-22T16:15:16;16.30;99.90
55203;DHT22;41077;52.956;6.796;2023-07-22T16:17:42;16.30;99.90
55203;DHT22;41077;52.956;6.796;2023-07-22T16:20:09;16.30;99.90
55203;DHT22;41077;52.956;6.796;2023-07-22T16:22:35;16.30;99.90
55203;DHT22;41077;52.956;6.796;2023-07-22T16:25:01;16.30;99.90
55203;DHT22;41077;52.956;6.796;2023-07-22T16:27:27;16.30;99.90
55203;DHT22;41077;52.956;6.796;2023-07-22T16:29:53;16.20;99.90
55203;DHT22;41077;52.956;6.796;2023-07-22T16:32:19;16.30;99.90
55203;DHT22;41077;52.956;6.796;2023-07-22T16:34:45;16.20;99.90
55203;DHT22;41077;52.956;6.796;2023-07-22T16:37:11;16.20;99.90
55203;DHT22;41077;52.956;6.796;2023-07-22T16:39:37;16.30;99.90
55203;DHT22;41077;52.956;6.796;2023-07-22T16:42:03;16.30;99.90
55203;DHT22;41077;52.956;6.796;2023-07-22T16:44:29;16.30;99.90
55203;DHT22;41077;52.956;6.796;2023-07-22T16:46:55;16.30;99.90
55203;DHT22;41077;52.956;6.796;2023-07-22T16:49:20;16.30;99.90
55203;DHT22;41077;52.956;6.796;2023-07-22T16:51:46;16.30;99.90
55203;DHT22;41077;52.956;6.796;2023-07-22T16:54:12;16.30;99.90
55203;DHT22;41077;52.956;6.796;2023-07-22T16:56:38;16.30;99.90
55203;DHT22;41077;52.956;6.796;2023-07-22T16:59:03;16.30;99.90
55203;DHT22;41077;52.956;6.796;2023-07-22T17:01:29;16.30;99.90
55203;DHT22;41077;52.956;6.796;2023-07-22T17:03:55;16.30;99.90
55203;DHT22;41077;52.956;6.796;2023-07-22T17:06:20;16.30;99.90
55203;DHT22;41077;52.956;6.796;2023-07-22T17:08:46;16.30;99.90
55203;DHT22;41077;52.956;6.796;2023-07-22T17:11:12;16.30;99.90
55203;DHT22;41077;52.956;6.796;2023-07-22T17:13:37;16.30;99.90
55203;DHT22;41077;52.956;6.796;2023-07-22T17:16:03;16.30;99.90
55203;DHT22;41077;52.956;6.796;2023-07-22T17:18:29;16.30;99.90
55203;DHT22;41077;52.956;6.796;2023-07-22T17:20:54;16.20;99.90
55203;DHT22;41077;52.956;6.796;2023-07-22T17:23:20;16.30;99.90
55203;DHT22;41077;52.956;6.796;2023-07-22T17:25:46;16.30;99.90
55203;DHT22;41077;52.956;6.796;2023-07-22T17:28:12;16.20;99.90
55203;DHT22;41077;52.956;6.796;2023-07-22T17:30:38;16.20;99.90
55203;DHT22;41077;52.956;6.796;2023-07-22T17:33:04;16.30;99.90
55203;DHT22;41077;52.956;6.796;2023-07-22T17:35:33;16.20;99.90
55203;DHT22;41077;52.956;6.796;2023-07-22T17:37:59;16.20;99.90
55203;DHT22;41077;52.956;6.796;2023-07-22T17:40:25;16.30;99.90
55203;DHT22;41077;52.956;6.796;2023-07-22T17:42:52;16.30;99.90
55203;DHT22;41077;52.956;6.796;2023-07-22T17:45:20;16.30;99.90
55203;DHT22;41077;52.956;6.796;2023-07-22T17:47:46;16.30;99.90
55203;DHT22;41077;52.956;6.796;2023-07-22T17:50:12;16.20;99.90
55203;DHT22;41077;52.956;6.796;2023-07-22T17:52:37;16.20;99.90
55203;DHT22;41077;52.956;6.796;2023-07-22T17:55:04;16.20;99.90
55203;DHT22;41077;52.956;6.796;2023-07-22T17:57:29;16.20;99.90
55203;DHT22;41077;52.956;6.796;2023-07-22T17:59:55;16.20;99.90
55203;DHT22;41077;52.956;6.796;2023-07-22T18:02:21;16.20;99.90
55203;DHT22;41077;52.956;6.796;2023-07-22T18:04:47;16.20;99.90
55203;DHT22;41077;52.956;6.796;2023-07-22T18:07:12;16.10;99.90
55203;DHT22;41077;52.956;6.796;2023-07-22T18:09:38;16.10;99.90
55203;DHT22;41077;52.956;6.796;2023-07-22T18:12:04;16.10;99.90
55203;DHT22;41077;52.956;6.796;2023-07-22T18:14:30;16.10;99.90
55203;DHT22;41077;52.956;6.796;2023-07-22T18:16:55;16.10;99.90
55203;DHT22;41077;52.956;6.796;2023-07-22T18:19:21;16.10;99.90
55203;DHT22;41077;52.956;6.796;2023-07-22T18:21:47;16.10;99.90
55203;DHT22;41077;52.956;6.796;2023-07-22T18:24:12;16.10;99.90
55203;DHT22;41077;52.956;6.796;2023-07-22T18:26:38;16.10;99.90
55203;DHT22;41077;52.956;6.796;2023-07-22T18:29:04;16.10;99.90
55203;DHT22;41077;52.956;6.796;2023-07-22T18:31:29;16.00;99.90
55203;DHT22;41077;52.956;6.796;2023-07-22T18:33:55;16.00;99.90
55203;DHT22;41077;52.956;6.796;2023-07-22T18:36:21;16.00;99.90
55203;DHT22;41077;52.956;6.796;2023-07-22T18:38:46;16.00;99.90
55203;DHT22;41077;52.956;6.796;2023-07-22T18:41:12;16.00;99.90
55203;DHT22;41077;52.956;6.796;2023-07-22T18:43:38;16.00;99.90
55203;DHT22;41077;52.956;6.796;2023-07-22T18:46:15;16.00;99.90
55203;DHT22;41077;52.956;6.796;2023-07-22T18:48:41;16.00;99.90
55203;DHT22;41077;52.956;6.796;2023-07-22T18:51:07;16.00;99.90
55203;DHT22;41077;52.956;6.796;2023-07-22T18:53:32;15.90;99.90
55203;DHT22;41077;52.956;6.796;2023-07-22T18:55:58;15.90;99.90
55203;DHT22;41077;52.956;6.796;2023-07-22T18:58:24;15.90;99.90
55203;DHT22;41077;52.956;6.796;2023-07-22T19:00:49;15.90;99.90
55203;DHT22;41077;52.956;6.796;2023-07-22T19:03:15;15.90;99.90
55203;DHT22;41077;52.956;6.796;2023-07-22T19:05:41;15.90;99.90
55203;DHT22;41077;52.956;6.796;2023-07-22T19:08:07;15.90;99.90
55203;DHT22;41077;52.956;6.796;2023-07-22T19:10:32;15.90;99.90
55203;DHT22;41077;52.956;6.796;2023-07-22T19:12:58;15.90;99.90
55203;DHT22;41077;52.956;6.796;2023-07-22T19:15:24;15.90;99.90
55203;DHT22;41077;52.956;6.796;2023-07-22T19:17:49;15.90;99.90
55203;DHT22;41077;52.956;6.796;2023-07-22T19:20:15;15.90;99.90
55203;DHT22;41077;52.956;6.796;2023-07-22T19:22:41;15.80;99.90
55203;DHT22;41077;52.956;6.796;2023-07-22T19:25:07;15.80;99.90
55203;DHT22;41077;52.956;6.796;2023-07-22T19:27:32;15.80;99.90
55203;DHT22;41077;52.956;6.796;2023-07-22T19:29:58;15.80;99.90
55203;DHT22;41077;52.956;6.796;2023-07-22T19:32:24;15.80;99.90
55203;DHT22;41077;52.956;6.796;2023-07-22T19:34:50;15.80;99.90
55203;DHT22;41077;52.956;6.796;2023-07-22T19:37:16;15.70;99.90
55203;DHT22;41077;52.956;6.796;2023-07-22T19:39:42;15.80;99.90
55203;DHT22;41077;52.956;6.796;2023-07-22T19:42:08;15.80;99.90
55203;DHT22;41077;52.956;6.796;2023-07-22T19:44:34;15.70;99.90
55203;DHT22;41077;52.956;6.796;2023-07-22T19:46:59;15.70;99.90